Flight Track Log - Related Links

Times and Time Zones

All times are in EDT time to prevent confusion due to time zone crossing. See the AWE1262 flight status page for this flight to view local times or setup timezone preferences in your user account.

Time Position Orientation Groundspeed Altitude Reporting Facility
EDT Latitude Longitude Course Direction KTS MPH feet Rate Location/Type
Thu 09:29:31 PM 39.8500 -75.2833 37° Northeast 163 188 1,300  Level Philadelphia TRACON
Thu 09:30:32 PM 39.8167 -75.3333 229° Southwest 217 250 3,200 2,286 Climbing Philadelphia TRACON
Thu 09:31:00 PM 39.8037 -74.8017 105° East  Level FlightAware Approximate
Thu 09:31:37 PM 39.7333 -75.3333 180° South 293 337 6,100  Level Philadelphia TRACON
Thu 09:32:00 PM 39.8106 -74.6728 37° Northeast  Level FlightAware Approximate
Thu 09:33:00 PM 39.9018 -74.5815 37° Northeast  Level FlightAware Approximate
Thu 09:33:38 PM 39.7319 -75.1492 91° East 314 361 9,800  Level New York Center
Thu 09:34:00 PM 39.9966 -74.5034 37° Northeast  Level FlightAware Approximate
Thu 09:34:37 PM 39.7511 -75.0261 79° East 312 359 11,500  Level New York Center
Thu 09:35:38 PM 39.7683 -74.8975 80° East 347 399 12,000 1,279 Climbing New York Center
Thu 09:36:39 PM 39.7875 -74.7664 79° East 359 413 14,100 2,118 Climbing New York Center
Thu 09:37:37 PM 39.8428 -74.6722 53° Northeast 354 407 16,200 2,050 Climbing New York Center
Thu 09:38:39 PM 39.9289 -74.5850 38° Northeast 360 414 18,200 2,213 Climbing New York Center
Thu 09:39:39 PM 40.0233 -74.4981 35° Northeast 378 435 20,700 2,168 Climbing New York Center
Thu 09:40:38 PM 40.1206 -74.4569 18° North 386 444 22,500 1,729 Climbing New York Center
Thu 09:41:37 PM 40.2339 -74.4306 10° North 391 450 24,100 1,500 Climbing New York Center
Thu 09:42:38 PM 40.3472 -74.4039 10° North 398 458 25,500 1,300 Climbing New York Center
Thu 09:43:37 PM 40.4692 -74.3747 10° North 422 486 26,700 1,240 Climbing New York Center
Thu 09:44:39 PM 40.5931 -74.3431 11° North 439 505 28,000 1,584 Climbing New York Center
Thu 09:46:54 PM 40.8808 -74.2794 North 463 533 31,900 1,538 Climbing Boston Center
Thu 09:47:54 PM 41.0042 -74.2497 10° North 451 519 33,000 550 Climbing Boston Center
Thu 09:48:54 PM 41.1297 -74.2175 11° North 445 512 33,000  Level Boston Center
Thu 09:49:55 PM 41.2658 -74.1800 12° North 450 518 33,000  Level Boston Center
Thu 09:50:54 PM 41.3914 -74.1472 11° North 450 518 33,000 -252 Level Boston Center
Thu 09:51:54 PM 41.5189 -74.1147 11° North 455 524 32,500 -545 Descending Boston Center
Thu 09:53:06 PM 41.6422 -74.0875 North 476 548 31,800 -773 Descending Boston Center
Thu 09:54:06 PM 41.7972 -74.0469 11° North 476 548 30,800 -850 Descending Boston Center
Thu 09:55:06 PM 41.9206 -74.0194 North 460 529 30,100 -850 Descending Boston Center
Thu 09:56:06 PM 42.0458 -73.9861 11° North 455 524 29,100 -1,750 Descending Boston Center
Thu 09:57:06 PM 42.1453 -73.8850 37° Northeast 443 510 26,600 -1,550 Descending Boston Center
Thu 09:58:06 PM 42.2075 -73.7322 61° Northeast 430 495 26,000 -350 Descending Boston Center
Thu 09:59:06 PM 42.2717 -73.5764 61° Northeast 458 527 25,900 -750 Descending Boston Center
Thu 10:00:06 PM 42.3294 -73.4342 61° Northeast 443 510 24,500 -1,450 Descending Boston Center
Thu 10:01:06 PM 42.3953 -73.2892 58° Northeast 431 496 23,000 -750 Descending Boston Center
Thu 10:02:06 PM 42.4875 -73.2058 34° Northeast 411 473 23,000 -750 Level Boston Center
Thu 10:03:06 PM 42.5383 -73.0797 61° Northeast 394 453 21,500 -1,550 Descending Boston Center
Thu 10:04:06 PM 42.5847 -72.9392 66° East 398 458 19,900 -1,550 Descending Boston Center
Thu 10:05:06 PM 42.6311 -72.7983 66° East 374 430 18,400 -1,450 Descending Boston Center
Thu 10:06:06 PM 42.6731 -72.6689 66° East 366 421 17,000 -1,350 Descending Boston Center
Thu 10:07:06 PM 42.7131 -72.5475 66° East 361 415 15,700 -1,350 Descending Boston Center
Thu 10:08:06 PM 42.7547 -72.4231 65° Northeast 356 410 14,300 -1,350 Descending Boston Center
Thu 10:09:06 PM 42.7922 -72.2986 68° East 356 410 13,000 -1,350 Descending Boston Center
Thu 10:10:06 PM 42.8044 -72.1714 82° East 338 389 11,600 -1,300 Descending Boston Center
Thu 10:11:06 PM 42.8125 -72.0494 85° East 327 376 10,400 -1,227 Descending Boston Center
Thu 10:12:18 PM 42.8222 -71.9078 85° East 317 365 8,900 -1,364 Descending Boston Center
Thu 10:13:18 PM 42.8008 -71.8119 107° East 301 346 7,400 -1,550 Descending Boston Center
Thu 10:14:18 PM 42.7794 -71.6906 103° East 296 341 5,800 -1,500 Descending Boston Center
Thu 10:15:18 PM 42.7619 -71.5975 104° East 291 335 4,400 -1,100 Descending Boston Center
Thu 10:16:18 PM 42.7528 -71.4928 97° East 266 306 3,600 -900 Descending Boston Center
Thu 10:17:18 PM 42.7708 -71.4133 73° East 225 259 2,600 -750 Descending Boston Center
Thu 10:18:18 PM 42.8039 -71.3619 49° Northeast 191 220 2,100 -500 Descending Boston Center

Login

Don't have an account? Register now (free) for customized features, flight alerts, and more!